Time;durP1;ratioP1;P1;durP2;ratioP2;P2;SDS_P1;SDS_P2;PMS_P1;PMS_P2;Temp;Humidity;BMP_temperature;BMP_pressure;BME280_temperature;BME280_humidity;BME280_pressure;Samples;Min_cycle;Max_cycle;Signal;HPM_P1;HPM_P2
2023/03/04 00:05:34;;;;;;;;;85.67;68.00;;;;;;;;6490612;39;9525;-59
2023/03/04 00:11:38;;;;;;;;;86.75;69.00;;;;;;;;6490020;39;8903;-59
2023/03/04 00:17:42;;;;;;;;;86.67;67.00;;;;;;;;6491708;39;9092;-60
2023/03/04 00:23:45;;;;;;;;;84.00;64.00;;;;;;;;6489803;46;8934;-59
2023/03/04 00:29:47;;;;;;;;;87.00;66.00;;;;;;;;6489261;36;8862;-59
2023/03/04 00:35:51;;;;;;;;;88.50;68.50;;;;;;;;6489767;39;8929;-59
2023/03/04 00:41:53;;;;;;;;;81.25;63.50;;;;;;;;6490068;31;8870;-59
2023/03/04 00:47:55;;;;;;;;;87.75;64.00;;;;;;;;6490050;39;8885;-59
2023/03/04 00:53:59;;;;;;;;;82.75;66.75;;;;;;;;6489281;39;8968;-59
2023/03/04 01:00:03;;;;;;;;;89.50;68.25;;;;;;;;6489379;39;9766;-59
2023/03/04 01:06:06;;;;;;;;;84.50;64.00;;;;;;;;6489148;39;8924;-59
2023/03/04 01:12:09;;;;;;;;;86.75;66.50;;;;;;;;6488615;39;8885;-60
2023/03/04 01:18:11;;;;;;;;;88.25;63.00;;;;;;;;6489571;46;8933;-59
2023/03/04 01:24:13;;;;;;;;;84.50;65.75;;;;;;;;6489923;31;8925;-60
2023/03/04 01:30:17;;;;;;;;;88.75;68.25;;;;;;;;6489558;39;8948;-59
2023/03/04 01:36:19;;;;;;;;;92.75;70.75;;;;;;;;6488966;39;8894;-57
2023/03/04 01:42:24;;;;;;;;;84.50;67.00;;;;;;;;6488762;39;9647;-60
2023/03/04 01:48:35;;;;;;;;;80.00;64.50;;;;;;;;6489088;39;8853;-59
2023/03/04 01:54:42;;;;;;;;;80.75;64.75;;;;;;;;6489009;31;8925;-60
2023/03/04 02:00:44;;;;;;;;;87.50;65.00;;;;;;;;6488974;39;8921;-58
2023/03/04 02:06:48;;;;;;;;;87.50;66.75;;;;;;;;6488591;31;9524;-59
2023/03/04 02:12:51;;;;;;;;;87.75;68.25;;;;;;;;6488294;46;8909;-59
2023/03/04 02:18:54;;;;;;;;;80.50;65.50;;;;;;;;6489050;39;8862;-58
2023/03/04 02:25:09;;;;;;;;;82.00;62.50;;;;;;;;6489034;39;8862;-59
2023/03/04 02:31:45;;;;;;;;;85.50;66.25;;;;;;;;6488298;39;8908;-59
2023/03/04 02:37:48;;;;;;;;;86.50;66.75;;;;;;;;6487586;47;8992;-58
2023/03/04 02:43:54;;;;;;;;;84.50;66.00;;;;;;;;6487958;39;8936;-60
2023/03/04 02:49:58;;;;;;;;;73.00;53.00;;;;;;;;6488133;47;8893;-60
2023/03/04 02:56:01;;;;;;;;;86.00;66.25;;;;;;;;6487774;47;8937;-59
2023/03/04 03:02:09;;;;;;;;;74.25;57.25;;;;;;;;6489468;39;9007;-59
2023/03/04 03:08:12;;;;;;;;;80.50;63.50;;;;;;;;6490043;39;8909;-59
2023/03/04 03:14:16;;;;;;;;;86.75;64.75;;;;;;;;6489992;39;9013;-59
2023/03/04 03:20:19;;;;;;;;;84.25;64.75;;;;;;;;6489355;46;9041;-58
2023/03/04 03:26:21;;;;;;;;;85.75;66.00;;;;;;;;6488932;39;8909;-60
2023/03/04 03:32:25;;;;;;;;;86.50;65.25;;;;;;;;6490927;39;8865;-57
2023/03/04 03:38:28;;;;;;;;;85.00;65.25;;;;;;;;6490211;39;8967;-59
2023/03/04 03:44:30;;;;;;;;;89.50;67.00;;;;;;;;6490716;39;8904;-58
2023/03/04 03:50:33;;;;;;;;;82.67;64.67;;;;;;;;6489720;39;8909;-58
2023/03/04 03:56:36;;;;;;;;;86.75;66.75;;;;;;;;6489805;39;8889;-59
2023/03/04 04:02:39;;;;;;;;;84.25;66.75;;;;;;;;6489571;39;9640;-59
2023/03/04 04:08:44;;;;;;;;;77.25;60.75;;;;;;;;6489842;46;9000;-59
2023/03/04 04:14:47;;;;;;;;;81.75;66.25;;;;;;;;6490817;39;8961;-59
2023/03/04 04:20:52;;;;;;;;;85.75;67.25;;;;;;;;6489946;46;8881;-59
2023/03/04 04:26:56;;;;;;;;;81.50;63.25;;;;;;;;6489569;39;8893;-58
2023/03/04 04:33:00;;;;;;;;;91.00;71.25;;;;;;;;6489730;39;8885;-59
2023/03/04 04:39:03;;;;;;;;;88.50;69.25;;;;;;;;6489684;39;8886;-59
2023/03/04 04:45:06;;;;;;;;;92.00;70.25;;;;;;;;6489835;39;10346;-58
2023/03/04 04:51:10;;;;;;;;;84.75;66.25;;;;;;;;6490408;39;8921;-58
2023/03/04 04:57:13;;;;;;;;;89.50;69.50;;;;;;;;6489261;31;8893;-58
2023/03/04 05:03:17;;;;;;;;;93.67;71.00;;;;;;;;6490137;39;8971;-59
2023/03/04 05:09:21;;;;;;;;;92.25;72.50;;;;;;;;6489659;46;8956;-59
